sensor_id;sensor_type;location;lat;lon;timestamp;temperature;humidity
46400;DHT22;32104;50.838;4.388;2023-11-18T02:47:56;8.60;99.90
46400;DHT22;32104;50.838;4.388;2023-11-18T02:50:24;8.70;99.90
46400;DHT22;32104;50.838;4.388;2023-11-18T02:52:50;8.70;99.90
46400;DHT22;32104;50.838;4.388;2023-11-18T02:55:18;8.70;99.90
46400;DHT22;32104;50.838;4.388;2023-11-18T02:57:45;8.80;99.90
46400;DHT22;32104;50.838;4.388;2023-11-18T03:00:12;8.80;99.90
46400;DHT22;32104;50.838;4.388;2023-11-18T03:02:44;8.80;99.90
46400;DHT22;32104;50.838;4.388;2023-11-18T03:05:11;8.70;99.90
46400;DHT22;32104;50.838;4.388;2023-11-18T03:07:38;8.90;99.90
46400;DHT22;32104;50.838;4.388;2023-11-18T03:10:04;8.90;99.90
46400;DHT22;32104;50.838;4.388;2023-11-18T05:09:02;8.80;99.90
46400;DHT22;32104;50.838;4.388;2023-11-18T05:33:03;9.10;99.90
46400;DHT22;32104;50.838;4.388;2023-11-18T08:31:29;8.80;99.90
46400;DHT22;32104;50.838;4.388;2023-11-18T10:10:31;9.10;99.90
46400;DHT22;32104;50.838;4.388;2023-11-18T10:13:11;9.00;99.90
46400;DHT22;32104;50.838;4.388;2023-11-18T10:15:49;9.10;99.90
46400;DHT22;32104;50.838;4.388;2023-11-18T11:40:58;9.40;99.90
46400;DHT22;32104;50.838;4.388;2023-11-18T11:43:30;9.50;99.90
46400;DHT22;32104;50.838;4.388;2023-11-18T11:45:56;9.50;99.90
46400;DHT22;32104;50.838;4.388;2023-11-18T11:48:23;9.40;99.90
46400;DHT22;32104;50.838;4.388;2023-11-18T11:51:30;9.60;99.90
46400;DHT22;32104;50.838;4.388;2023-11-18T11:54:10;9.60;99.90
46400;DHT22;32104;50.838;4.388;2023-11-18T16:42:59;11.40;99.90
46400;DHT22;32104;50.838;4.388;2023-11-18T18:03:08;12.20;99.90
46400;DHT22;32104;50.838;4.388;2023-11-18T18:48:23;12.70;99.90
46400;DHT22;32104;50.838;4.388;2023-11-18T18:54:15;12.70;99.90
46400;DHT22;32104;50.838;4.388;2023-11-18T18:56:50;12.70;99.90
46400;DHT22;32104;50.838;4.388;2023-11-18T18:59:36;12.80;99.90
46400;DHT22;32104;50.838;4.388;2023-11-18T19:02:15;12.90;99.90
46400;DHT22;32104;50.838;4.388;2023-11-18T19:04:49;12.80;99.90
46400;DHT22;32104;50.838;4.388;2023-11-18T19:07:23;12.90;99.90
46400;DHT22;32104;50.838;4.388;2023-11-18T19:10:16;12.90;99.90
46400;DHT22;32104;50.838;4.388;2023-11-18T19:13:37;13.00;99.90
46400;DHT22;32104;50.838;4.388;2023-11-18T19:16:10;13.00;99.90
46400;DHT22;32104;50.838;4.388;2023-11-18T19:18:37;13.00;99.90
46400;DHT22;32104;50.838;4.388;2023-11-18T19:21:03;13.00;99.90
46400;DHT22;32104;50.838;4.388;2023-11-18T19:23:43;13.10;99.90
46400;DHT22;32104;50.838;4.388;2023-11-18T19:26:19;13.10;99.90
46400;DHT22;32104;50.838;4.388;2023-11-18T19:29:18;13.00;99.90
46400;DHT22;32104;50.838;4.388;2023-11-18T19:32:07;13.10;99.90
46400;DHT22;32104;50.838;4.388;2023-11-18T19:34:37;13.10;99.90
46400;DHT22;32104;50.838;4.388;2023-11-18T19:37:03;13.10;99.90
46400;DHT22;32104;50.838;4.388;2023-11-18T19:39:35;13.20;99.90
46400;DHT22;32104;50.838;4.388;2023-11-18T19:42:38;13.20;99.90
46400;DHT22;32104;50.838;4.388;2023-11-18T19:46:03;13.30;99.90
46400;DHT22;32104;50.838;4.388;2023-11-18T19:48:48;13.20;99.90
46400;DHT22;32104;50.838;4.388;2023-11-18T19:55:08;13.20;99.90
46400;DHT22;32104;50.838;4.388;2023-11-18T19:57:45;13.20;99.90
46400;DHT22;32104;50.838;4.388;2023-11-18T20:00:20;13.20;99.90
46400;DHT22;32104;50.838;4.388;2023-11-18T20:03:07;13.20;99.90
46400;DHT22;32104;50.838;4.388;2023-11-18T20:05:43;13.20;99.90
46400;DHT22;32104;50.838;4.388;2023-11-18T20:08:14;13.40;99.90
46400;DHT22;32104;50.838;4.388;2023-11-18T20:11:20;13.20;99.90
46400;DHT22;32104;50.838;4.388;2023-11-18T20:14:29;13.40;99.90
46400;DHT22;32104;50.838;4.388;2023-11-18T20:20:37;13.30;99.90
46400;DHT22;32104;50.838;4.388;2023-11-18T20:23:03;13.30;99.90
46400;DHT22;32104;50.838;4.388;2023-11-18T20:25:45;13.40;99.90
46400;DHT22;32104;50.838;4.388;2023-11-18T20:28:14;13.40;99.90
46400;DHT22;32104;50.838;4.388;2023-11-18T20:30:42;13.50;99.90
46400;DHT22;32104;50.838;4.388;2023-11-18T20:33:09;13.50;99.90
46400;DHT22;32104;50.838;4.388;2023-11-18T20:35:43;13.50;99.90
46400;DHT22;32104;50.838;4.388;2023-11-18T20:38:13;13.60;99.90
46400;DHT22;32104;50.838;4.388;2023-11-18T20:40:55;13.70;99.90
46400;DHT22;32104;50.838;4.388;2023-11-18T20:44:10;13.70;99.90
46400;DHT22;32104;50.838;4.388;2023-11-18T20:46:44;13.70;99.90
46400;DHT22;32104;50.838;4.388;2023-11-18T20:49:19;13.70;99.90
46400;DHT22;32104;50.838;4.388;2023-11-18T20:52:10;13.80;99.90
46400;DHT22;32104;50.838;4.388;2023-11-18T20:54:44;13.80;99.90
46400;DHT22;32104;50.838;4.388;2023-11-18T20:57:24;13.80;99.90
46400;DHT22;32104;50.838;4.388;2023-11-18T20:59:57;13.70;99.90
46400;DHT22;32104;50.838;4.388;2023-11-18T21:08:39;13.80;99.90
46400;DHT22;32104;50.838;4.388;2023-11-18T21:11:14;13.70;99.90
46400;DHT22;32104;50.838;4.388;2023-11-18T21:13:56;13.80;99.90
46400;DHT22;32104;50.838;4.388;2023-11-18T21:30:11;13.80;99.90
46400;DHT22;32104;50.838;4.388;2023-11-18T21:43:20;13.80;99.90
46400;DHT22;32104;50.838;4.388;2023-11-18T21:45:57;13.80;99.90
46400;DHT22;32104;50.838;4.388;2023-11-18T21:58:33;14.00;99.90
46400;DHT22;32104;50.838;4.388;2023-11-18T22:11:52;14.10;99.90
46400;DHT22;32104;50.838;4.388;2023-11-18T22:15:07;14.10;99.90
46400;DHT22;32104;50.838;4.388;2023-11-18T22:24:46;14.20;99.90
46400;DHT22;32104;50.838;4.388;2023-11-18T22:27:33;14.10;99.90
46400;DHT22;32104;50.838;4.388;2023-11-18T22:30:04;14.00;99.90
46400;DHT22;32104;50.838;4.388;2023-11-18T22:33:06;14.00;99.90
46400;DHT22;32104;50.838;4.388;2023-11-18T22:35:47;14.00;99.90
46400;DHT22;32104;50.838;4.388;2023-11-18T22:38:24;14.20;99.90
46400;DHT22;32104;50.838;4.388;2023-11-18T22:41:15;14.10;99.90
46400;DHT22;32104;50.838;4.388;2023-11-18T22:44:06;14.20;99.90
46400;DHT22;32104;50.838;4.388;2023-11-18T22:47:12;14.30;99.90
46400;DHT22;32104;50.838;4.388;2023-11-18T22:50:02;14.30;99.90
46400;DHT22;32104;50.838;4.388;2023-11-18T22:52:39;14.10;99.90
46400;DHT22;32104;50.838;4.388;2023-11-18T22:55:07;14.10;99.90
46400;DHT22;32104;50.838;4.388;2023-11-18T22:57:38;14.10;99.90
46400;DHT22;32104;50.838;4.388;2023-11-18T23:00:11;14.20;99.90
46400;DHT22;32104;50.838;4.388;2023-11-18T23:02:58;14.20;99.90
46400;DHT22;32104;50.838;4.388;2023-11-18T23:05:29;14.30;99.90
46400;DHT22;32104;50.838;4.388;2023-11-18T23:08:07;14.30;99.90
46400;DHT22;32104;50.838;4.388;2023-11-18T23:10:42;14.30;99.90
46400;DHT22;32104;50.838;4.388;2023-11-18T23:16:23;14.20;99.90
46400;DHT22;32104;50.838;4.388;2023-11-18T23:18:57;14.30;99.90
46400;DHT22;32104;50.838;4.388;2023-11-18T23:21:46;14.20;99.90
46400;DHT22;32104;50.838;4.388;2023-11-18T23:24:32;14.00;99.90
46400;DHT22;32104;50.838;4.388;2023-11-18T23:27:52;14.00;99.90
46400;DHT22;32104;50.838;4.388;2023-11-18T23:33:52;14.00;99.90
46400;DHT22;32104;50.838;4.388;2023-11-18T23:36:36;14.10;99.90
46400;DHT22;32104;50.838;4.388;2023-11-18T23:42:46;14.10;99.90
46400;DHT22;32104;50.838;4.388;2023-11-18T23:49:19;14.10;99.90
46400;DHT22;32104;50.838;4.388;2023-11-18T23:52:04;14.10;99.90
